createdAt,value
2019-01-20T00:01:17.646Z,14.83
2019-01-20T00:03:48.140Z,15.03
2019-01-20T00:06:18.400Z,15.00
2019-01-20T00:08:48.650Z,15.53
2019-01-20T00:11:19.065Z,14.97
2019-01-20T00:13:49.357Z,15.53
2019-01-20T00:16:19.765Z,16.60
2019-01-20T00:18:50.105Z,15.13
2019-01-20T00:21:20.416Z,16.57
2019-01-20T00:23:50.744Z,15.40
2019-01-20T00:26:21.304Z,15.43
2019-01-20T00:28:51.815Z,15.93
2019-01-20T00:31:22.421Z,15.37
2019-01-20T00:33:53.000Z,16.20
2019-01-20T00:36:23.329Z,14.63
2019-01-20T00:38:53.596Z,16.77
2019-01-20T00:41:24.559Z,16.10
2019-01-20T00:43:54.918Z,14.43
2019-01-20T00:46:25.501Z,16.27
2019-01-20T00:48:55.862Z,15.30
2019-01-20T00:51:26.737Z,15.97
2019-01-20T00:53:57.102Z,16.00
2019-01-20T00:56:27.638Z,15.73
2019-01-20T00:58:57.994Z,16.75
2019-01-20T01:01:28.724Z,15.57
2019-01-20T01:03:59.985Z,14.98
2019-01-20T01:06:30.248Z,15.83
2019-01-20T01:09:00.844Z,16.00
2019-01-20T01:11:31.779Z,16.27
2019-01-20T01:14:02.625Z,15.97
2019-01-20T01:16:32.979Z,16.23
2019-01-20T01:19:03.374Z,16.93
2019-01-20T01:21:33.632Z,16.87
2019-01-20T01:24:04.167Z,16.20
2019-01-20T01:26:34.592Z,16.77
2019-01-20T01:29:04.892Z,16.83
2019-01-20T01:31:35.749Z,16.12
2019-01-20T01:34:06.027Z,15.88
2019-01-20T01:36:36.345Z,15.27
2019-01-20T01:39:09.782Z,14.95
2019-01-20T01:41:40.060Z,15.63
2019-01-20T01:44:10.340Z,16.13
2019-01-20T01:46:40.749Z,14.53
2019-01-20T01:49:10.984Z,16.53
2019-01-20T01:51:41.278Z,17.07
2019-01-20T01:54:11.580Z,16.20
2019-01-20T01:56:42.788Z,15.40
2019-01-20T01:59:13.087Z,15.33
2019-01-20T02:01:43.901Z,16.63
2019-01-20T02:04:14.383Z,17.47
2019-01-20T02:06:44.638Z,15.53
2019-01-20T02:09:15.318Z,16.40
2019-01-20T02:11:46.934Z,16.00
2019-01-20T02:14:17.614Z,17.47
2019-01-20T02:16:48.001Z,16.87
2019-01-20T02:19:18.345Z,15.50
2019-01-20T02:21:48.643Z,17.77
2019-01-20T02:24:18.972Z,17.63
2019-01-20T02:26:49.248Z,17.00
2019-01-20T02:29:19.559Z,17.70
2019-01-20T02:31:50.015Z,17.47
2019-01-20T02:34:20.269Z,16.17
2019-01-20T02:36:50.534Z,16.53
2019-01-20T02:39:20.896Z,16.50
2019-01-20T02:41:55.317Z,17.67
2019-01-20T02:44:23.490Z,16.60
2019-01-20T02:46:53.851Z,16.27
2019-01-20T02:49:24.113Z,18.27
2019-01-20T02:51:54.427Z,17.87
2019-01-20T02:54:25.004Z,17.07
2019-01-20T02:56:55.295Z,17.20
2019-01-20T02:59:25.554Z,17.77
2019-01-20T03:01:56.099Z,16.33
2019-01-20T03:04:26.400Z,17.27
2019-01-20T03:06:56.661Z,17.23
2019-01-20T03:09:27.103Z,17.43
2019-01-20T03:12:03.468Z,16.70
2019-01-20T03:14:29.450Z,17.47
2019-01-20T03:16:59.833Z,16.43
2019-01-20T03:19:30.690Z,17.57
2019-01-20T03:22:00.968Z,17.40
2019-01-20T03:24:31.567Z,17.03
2019-01-20T03:27:01.805Z,16.90
2019-01-20T03:29:32.407Z,18.13
2019-01-20T03:32:02.938Z,18.20
2019-01-20T03:34:33.469Z,18.77
2019-01-20T03:37:03.739Z,19.10
2019-01-20T03:39:34.049Z,19.10
2019-01-20T03:42:11.890Z,20.43
2019-01-20T03:44:37.700Z,19.27
2019-01-20T03:47:08.031Z,19.17
2019-01-20T03:49:38.255Z,19.80
2019-01-20T03:52:08.515Z,19.33
2019-01-20T03:54:38.845Z,20.02
2019-01-20T03:57:09.131Z,19.13
2019-01-20T03:59:39.760Z,19.67
2019-01-20T04:02:10.126Z,18.90
2019-01-20T04:04:40.358Z,18.70
2019-01-20T04:07:10.645Z,19.67
2019-01-20T04:09:41.039Z,18.87
2019-01-20T04:12:11.211Z,19.15
2019-01-20T04:14:41.453Z,19.17
2019-01-20T04:17:11.793Z,18.40
2019-01-20T04:19:42.024Z,18.30
2019-01-20T04:22:12.321Z,18.17
2019-01-20T04:24:42.632Z,18.27
2019-01-20T04:27:12.816Z,18.90
2019-01-20T04:29:43.333Z,18.03
2019-01-20T04:32:13.585Z,24.35
2019-01-20T04:34:44.098Z,19.75
2019-01-20T04:37:14.380Z,19.13
2019-01-20T04:39:44.679Z,19.40
2019-01-20T04:42:14.949Z,19.60
2019-01-20T04:44:45.240Z,18.52
2019-01-20T04:47:16.117Z,19.33
2019-01-20T04:49:46.366Z,18.05
2019-01-20T04:52:16.594Z,19.57
2019-01-20T04:54:46.939Z,19.12
2019-01-20T04:57:20.559Z,18.67
2019-01-20T04:59:50.800Z,19.52
2019-01-20T05:02:21.136Z,19.32
2019-01-20T05:04:51.410Z,19.13
2019-01-20T05:07:21.691Z,19.83
2019-01-20T05:09:52.268Z,20.15
2019-01-20T05:12:22.833Z,19.07
2019-01-20T05:14:53.085Z,20.27
2019-01-20T05:17:23.512Z,18.50
2019-01-20T05:19:53.755Z,20.27
2019-01-20T05:22:24.144Z,19.37
2019-01-20T05:24:54.631Z,19.73
2019-01-20T05:27:25.276Z,18.60
2019-01-20T05:29:55.625Z,21.03
2019-01-20T05:32:25.934Z,21.73
2019-01-20T05:34:57.051Z,21.47
2019-01-20T05:37:27.531Z,20.20
2019-01-20T05:39:58.043Z,20.33
2019-01-20T05:42:28.397Z,19.97
2019-01-20T05:44:58.696Z,19.67
2019-01-20T05:47:29.382Z,22.63
2019-01-20T05:49:59.655Z,20.33
2019-01-20T05:52:29.942Z,19.90
2019-01-20T05:55:00.266Z,19.33
2019-01-20T05:57:30.667Z,20.45
2019-01-20T06:00:01.136Z,20.73
2019-01-20T06:02:31.392Z,22.60
2019-01-20T06:05:01.950Z,21.70
2019-01-20T06:07:32.383Z,20.30
2019-01-20T06:10:02.690Z,22.98
2019-01-20T06:12:32.992Z,21.53
2019-01-20T06:15:03.426Z,22.53
2019-01-20T06:17:33.660Z,22.58
2019-01-20T06:20:04.028Z,23.90
2019-01-20T06:22:34.355Z,23.10
2019-01-20T06:25:05.281Z,22.17
2019-01-20T06:27:35.603Z,21.37
2019-01-20T06:30:10.596Z,26.62
2019-01-20T06:32:40.897Z,25.07
2019-01-20T06:35:11.399Z,25.90
2019-01-20T06:37:41.856Z,26.10
2019-01-20T06:40:12.336Z,25.60
2019-01-20T06:42:42.632Z,26.23
2019-01-20T06:45:13.087Z,27.50
2019-01-20T06:47:43.370Z,36.68
2019-01-20T06:50:18.689Z,29.73
2019-01-20T06:52:49.044Z,28.87
2019-01-20T06:55:19.327Z,28.23
2019-01-20T06:57:49.945Z,29.83
2019-01-20T07:00:22.709Z,31.30
2019-01-20T07:02:53.076Z,32.40
2019-01-20T07:05:23.608Z,31.53
2019-01-20T07:07:54.107Z,29.87
2019-01-20T07:10:24.374Z,30.80
2019-01-20T07:12:54.603Z,29.33
2019-01-20T07:15:25.939Z,29.53
2019-01-20T07:17:56.216Z,27.47
2019-01-20T07:20:27.397Z,27.80
2019-01-20T07:22:57.724Z,24.03
2019-01-20T07:25:28.089Z,23.53
2019-01-20T07:27:58.423Z,22.97
2019-01-20T07:30:28.753Z,20.33
2019-01-20T07:32:59.062Z,22.03
2019-01-20T07:35:29.291Z,20.17
2019-01-20T07:37:59.634Z,20.47
2019-01-20T07:40:29.907Z,20.23
2019-01-20T07:43:00.166Z,20.17
2019-01-20T07:45:30.511Z,20.30
2019-01-20T07:48:00.866Z,18.90
2019-01-20T07:50:31.545Z,21.37
2019-01-20T07:53:01.889Z,21.53
2019-01-20T07:55:32.263Z,21.70
2019-01-20T07:58:02.524Z,22.50
2019-01-20T08:00:32.875Z,24.37
2019-01-20T08:03:03.197Z,22.57
2019-01-20T08:05:33.499Z,26.27
2019-01-20T08:08:03.808Z,28.70
2019-01-20T08:10:34.125Z,26.33
2019-01-20T08:13:04.840Z,26.80
2019-01-20T08:15:35.202Z,26.63
2019-01-20T08:18:05.669Z,26.82
2019-01-20T08:20:35.949Z,26.97
2019-01-20T08:23:06.280Z,26.93
2019-01-20T08:25:36.665Z,26.03
2019-01-20T08:28:06.929Z,27.83
2019-01-20T08:30:37.228Z,28.17
2019-01-20T08:33:07.547Z,27.17
2019-01-20T08:35:37.819Z,29.05
2019-01-20T08:38:08.113Z,26.70
2019-01-20T08:40:38.423Z,25.63
2019-01-20T08:43:08.702Z,26.57
2019-01-20T08:46:47.310Z,26.43
2019-01-20T08:49:17.770Z,25.73
2019-01-20T08:51:48.068Z,27.63
2019-01-20T08:54:18.353Z,26.93
2019-01-20T08:56:48.632Z,29.37
2019-01-20T08:59:18.914Z,28.44
2019-01-20T09:01:49.164Z,28.03
2019-01-20T09:04:19.489Z,26.77
2019-01-20T09:06:49.810Z,28.00
2019-01-20T09:09:20.084Z,26.27
2019-01-20T09:11:50.338Z,26.87
2019-01-20T09:14:20.664Z,27.83
2019-01-20T09:16:50.983Z,26.37
2019-01-20T09:19:21.547Z,26.87
2019-01-20T09:21:52.011Z,26.77
2019-01-20T09:24:22.262Z,29.47
2019-01-20T09:26:52.683Z,27.30
2019-01-20T09:29:22.987Z,26.10
2019-01-20T09:31:53.257Z,26.83
2019-01-20T09:34:23.552Z,29.03
2019-01-20T09:36:53.875Z,27.05
2019-01-20T09:39:24.423Z,28.77
2019-01-20T09:41:54.990Z,29.93
2019-01-20T09:44:25.355Z,28.60
2019-01-20T09:46:55.668Z,28.03
2019-01-20T09:49:25.965Z,29.10
2019-01-20T09:51:56.536Z,27.65
2019-01-20T09:54:26.798Z,31.50
2019-01-20T09:56:57.069Z,29.17
2019-01-20T09:59:27.393Z,28.62
2019-01-20T10:01:57.715Z,30.67
2019-01-20T10:04:28.082Z,28.50
2019-01-20T10:06:58.303Z,28.05
2019-01-20T10:09:28.519Z,29.13
2019-01-20T10:11:58.846Z,28.43
2019-01-20T10:14:29.071Z,27.37
2019-01-20T10:16:59.421Z,27.65
2019-01-20T10:19:29.780Z,27.87
2019-01-20T10:22:00.065Z,27.00
2019-01-20T10:24:30.323Z,28.73
2019-01-20T10:27:00.672Z,27.57
2019-01-20T10:29:31.007Z,25.63
2019-01-20T10:32:01.527Z,26.37
2019-01-20T10:34:32.625Z,26.90
2019-01-20T10:37:04.036Z,26.83
2019-01-20T10:39:34.349Z,28.13
2019-01-20T10:42:04.739Z,26.33
2019-01-20T10:44:34.944Z,27.67
2019-01-20T10:47:05.434Z,28.13
2019-01-20T10:49:35.851Z,28.57
2019-01-20T10:52:06.444Z,29.07
2019-01-20T10:54:36.757Z,28.17
2019-01-20T10:57:07.082Z,30.93
2019-01-20T10:59:37.400Z,30.03
2019-01-20T11:02:07.684Z,29.65
2019-01-20T11:04:37.897Z,30.13
2019-01-20T11:07:08.278Z,30.83
2019-01-20T11:09:38.493Z,29.77
2019-01-20T11:12:08.976Z,30.37
2019-01-20T11:14:39.323Z,31.20
2019-01-20T11:17:09.845Z,30.85
2019-01-20T11:19:40.162Z,30.60
2019-01-20T11:22:10.561Z,31.10
2019-01-20T11:24:40.855Z,31.50
2019-01-20T11:27:11.432Z,31.40
2019-01-20T11:29:42.015Z,29.33
2019-01-20T11:32:12.305Z,31.67
2019-01-20T11:34:42.797Z,30.73
2019-01-20T11:37:13.060Z,32.00
2019-01-20T11:39:43.515Z,32.17
2019-01-20T11:42:13.911Z,31.17
2019-01-20T11:44:44.183Z,29.90
2019-01-20T11:47:14.419Z,33.07
2019-01-20T11:49:44.674Z,30.67
2019-01-20T11:52:14.934Z,33.00
2019-01-20T11:54:45.159Z,34.03
2019-01-20T11:57:15.480Z,29.63
2019-01-20T11:59:45.661Z,32.90
2019-01-20T12:02:22.355Z,30.63
2019-01-20T12:04:49.180Z,33.30
2019-01-20T12:07:19.412Z,30.03
2019-01-20T12:09:49.660Z,30.27
2019-01-20T12:12:19.868Z,30.40
2019-01-20T12:14:50.201Z,31.63
2019-01-20T12:17:20.487Z,30.95
2019-01-20T12:19:50.832Z,31.67
2019-01-20T12:22:21.067Z,30.20
2019-01-20T12:24:51.367Z,30.70
2019-01-20T12:27:21.859Z,31.00
2019-01-20T12:29:52.202Z,31.37
2019-01-20T12:32:22.511Z,29.97
2019-01-20T12:34:52.863Z,30.77
2019-01-20T12:37:23.193Z,30.13
2019-01-20T12:39:53.447Z,29.82
2019-01-20T12:42:23.835Z,31.20
2019-01-20T12:44:54.123Z,29.45
2019-01-20T12:47:24.461Z,30.95
2019-01-20T12:49:54.756Z,29.87
2019-01-20T12:52:25.013Z,30.07
2019-01-20T12:54:55.225Z,30.47
2019-01-20T12:57:25.552Z,29.63
2019-01-20T12:59:55.861Z,28.87
2019-01-20T13:02:26.139Z,30.93
2019-01-20T13:04:56.552Z,30.10
2019-01-20T13:07:26.901Z,28.27
2019-01-20T13:09:57.144Z,27.93
2019-01-20T13:12:27.734Z,29.70
2019-01-20T13:14:57.991Z,29.12
2019-01-20T13:17:28.269Z,29.67
2019-01-20T13:19:58.770Z,30.62
2019-01-20T13:22:29.322Z,28.17
2019-01-20T13:24:59.594Z,29.92
2019-01-20T13:27:29.924Z,30.10
2019-01-20T13:30:00.230Z,29.30
2019-01-20T13:32:30.462Z,27.13
2019-01-20T13:35:00.986Z,26.47
2019-01-20T13:37:31.237Z,27.70
2019-01-20T13:40:01.527Z,27.50
2019-01-20T13:42:32.263Z,26.27
2019-01-20T13:45:02.539Z,25.30
2019-01-20T13:47:32.770Z,25.03
2019-01-20T13:50:03.275Z,25.53
2019-01-20T13:52:33.628Z,25.20
2019-01-20T13:55:03.925Z,25.87
2019-01-20T13:57:34.228Z,24.90
2019-01-20T14:00:06.155Z,24.85
2019-01-20T14:02:36.432Z,23.98
2019-01-20T14:05:07.548Z,25.07
2019-01-20T14:07:37.847Z,24.27
2019-01-20T14:10:10.674Z,24.27
2019-01-20T14:12:41.032Z,23.03
2019-01-20T14:15:13.069Z,24.00
2019-01-20T14:17:43.557Z,23.53
2019-01-20T14:20:18.149Z,23.15
2019-01-20T14:22:48.453Z,22.30
2019-01-20T14:25:21.663Z,21.47
2019-01-20T14:27:52.963Z,21.86
2019-01-20T14:30:26.456Z,22.47
2019-01-20T14:32:56.787Z,21.90
2019-01-20T14:35:27.086Z,22.23
2019-01-20T14:37:57.278Z,20.97
2019-01-20T14:40:27.562Z,21.87
2019-01-20T14:42:57.862Z,22.55
2019-01-20T14:45:28.130Z,22.63
2019-01-20T14:47:58.446Z,22.60
2019-01-20T14:50:28.720Z,24.52
2019-01-20T14:52:58.974Z,24.53
2019-01-20T14:55:29.339Z,26.30
2019-01-20T14:57:59.579Z,25.73
2019-01-20T15:00:35.736Z,25.03
2019-01-20T15:03:07.379Z,24.80
2019-01-20T15:05:37.772Z,25.03
2019-01-20T15:08:09.410Z,30.30
2019-01-20T15:10:39.808Z,32.10
2019-01-20T15:13:10.072Z,28.70
2019-01-20T15:15:42.101Z,27.10
2019-01-20T15:18:12.519Z,25.53
2019-01-20T15:20:43.176Z,27.27
2019-01-20T15:23:13.438Z,27.03
2019-01-20T15:25:44.042Z,27.30
2019-01-20T15:28:14.325Z,26.90
2019-01-20T15:30:44.668Z,27.00
2019-01-20T15:33:15.130Z,27.53
2019-01-20T15:35:45.367Z,34.60
2019-01-20T15:38:15.624Z,28.73
2019-01-20T15:40:45.926Z,28.70
2019-01-20T15:43:16.222Z,34.77
2019-01-20T15:45:46.489Z,40.70
2019-01-20T15:48:16.779Z,31.17
2019-01-20T15:50:47.092Z,32.17
2019-01-20T15:53:17.366Z,29.90
2019-01-20T15:55:47.645Z,29.43
2019-01-20T15:58:18.221Z,30.07
2019-01-20T16:00:48.598Z,29.87
2019-01-20T16:03:18.862Z,28.70
2019-01-20T16:05:50.046Z,29.20
2019-01-20T16:08:20.368Z,27.62
2019-01-20T16:10:50.615Z,27.83
2019-01-20T16:13:20.890Z,28.33
2019-01-20T16:15:51.160Z,37.43
2019-01-20T16:18:21.464Z,33.98
2019-01-20T16:20:51.716Z,32.53
2019-01-20T16:23:21.953Z,33.27
2019-01-20T16:25:52.330Z,30.77
2019-01-20T16:28:22.560Z,31.00
2019-01-20T16:30:52.918Z,32.23
2019-01-20T16:33:24.932Z,30.60
2019-01-20T16:35:55.366Z,31.17
2019-01-20T16:38:25.626Z,27.70
2019-01-20T16:40:55.883Z,30.07
2019-01-20T16:43:26.208Z,31.00
2019-01-20T16:45:56.454Z,29.77
2019-01-20T16:48:27.899Z,29.67
2019-01-20T16:50:58.169Z,27.87
2019-01-20T16:53:28.460Z,28.07
2019-01-20T16:55:58.719Z,29.47
2019-01-20T16:58:29.308Z,28.62
2019-01-20T17:00:59.518Z,29.17
2019-01-20T17:03:29.856Z,31.63
2019-01-20T17:06:00.455Z,31.60
2019-01-20T17:08:30.721Z,31.00
2019-01-20T17:11:00.967Z,30.20
2019-01-20T17:13:31.235Z,31.47
2019-01-20T17:16:01.493Z,31.80
2019-01-20T17:18:31.747Z,29.17
2019-01-20T17:21:02.204Z,28.87
2019-01-20T17:23:32.489Z,28.62
2019-01-20T17:26:02.888Z,29.30
2019-01-20T17:28:33.201Z,30.95
2019-01-20T17:31:03.917Z,28.70
2019-01-20T17:33:34.134Z,31.57
2019-01-20T17:36:04.441Z,28.92
2019-01-20T17:38:34.725Z,29.70
2019-01-20T17:41:04.975Z,29.50
2019-01-20T17:43:35.306Z,29.27
2019-01-20T17:46:06.116Z,30.00
2019-01-20T17:48:36.391Z,29.90
2019-01-20T17:51:06.735Z,31.07
2019-01-20T17:53:37.063Z,32.80
2019-01-20T17:56:07.324Z,31.03
2019-01-20T17:58:37.638Z,31.37
2019-01-20T18:01:08.315Z,30.53
2019-01-20T18:03:38.683Z,30.85
2019-01-20T18:06:08.966Z,31.13
2019-01-20T18:08:39.348Z,31.17
2019-01-20T18:11:09.599Z,29.67
2019-01-20T18:13:39.934Z,28.87
2019-01-20T18:16:10.209Z,28.43
2019-01-20T18:18:40.497Z,27.60
2019-01-20T18:21:11.217Z,26.43
2019-01-20T18:23:41.469Z,27.63
2019-01-20T18:26:11.751Z,28.33
2019-01-20T18:28:42.100Z,26.53
2019-01-20T18:31:12.386Z,26.77
2019-01-20T18:33:42.641Z,26.63
2019-01-20T18:36:12.980Z,27.80
2019-01-20T18:38:43.509Z,27.20
2019-01-20T18:41:13.760Z,28.20
2019-01-20T18:43:44.112Z,27.50
2019-01-20T18:46:14.407Z,28.23
2019-01-20T18:48:44.695Z,28.13
2019-01-20T18:51:15.039Z,29.10
2019-01-20T18:53:45.613Z,29.80
2019-01-20T18:56:15.893Z,31.80
2019-01-20T18:58:46.195Z,33.20
2019-01-20T19:01:16.414Z,30.43
2019-01-20T19:03:46.720Z,33.57
2019-01-20T19:06:16.943Z,31.57
2019-01-20T19:08:47.329Z,33.40
2019-01-20T19:11:17.732Z,32.90
2019-01-20T19:13:48.263Z,34.53
2019-01-20T19:16:18.526Z,35.33
2019-01-20T19:18:48.857Z,33.93
2019-01-20T19:21:19.169Z,33.33
2019-01-20T19:23:49.599Z,31.73
2019-01-20T19:26:19.893Z,32.77
2019-01-20T19:28:50.171Z,34.90
2019-01-20T19:31:20.495Z,32.33
2019-01-20T19:33:51.201Z,35.78
2019-01-20T19:36:21.495Z,32.33
2019-01-20T19:38:51.744Z,36.37
2019-01-20T19:41:22.073Z,35.15
2019-01-20T19:43:52.715Z,35.90
2019-01-20T19:46:23.042Z,39.00
2019-01-20T19:48:53.303Z,38.27
2019-01-20T19:51:23.842Z,36.43
2019-01-20T19:53:54.327Z,36.90
2019-01-20T19:56:24.602Z,34.07
2019-01-20T19:58:54.892Z,37.37
2019-01-20T20:01:30.784Z,35.50
2019-01-20T20:03:57.254Z,35.40
2019-01-20T20:06:27.812Z,31.07
2019-01-20T20:08:58.179Z,31.57
2019-01-20T20:11:28.448Z,30.97
2019-01-20T20:13:58.706Z,32.20
2019-01-20T20:16:28.964Z,34.60
2019-01-20T20:18:59.284Z,36.37
2019-01-20T20:21:29.569Z,35.68
2019-01-20T20:23:59.885Z,34.63
2019-01-20T20:26:30.167Z,31.53
2019-01-20T20:29:00.831Z,30.03
2019-01-20T20:31:31.499Z,30.13
2019-01-20T20:34:02.690Z,28.92
2019-01-20T20:36:33.338Z,32.77
2019-01-20T20:39:03.683Z,33.87
2019-01-20T20:41:33.930Z,37.42
2019-01-20T20:44:04.369Z,40.53
2019-01-20T20:46:35.079Z,43.73
2019-01-20T20:49:05.752Z,46.30
2019-01-20T20:51:36.486Z,41.23
2019-01-20T20:54:06.732Z,39.90
2019-01-20T20:56:37.073Z,36.53
2019-01-20T20:59:07.557Z,35.57
2019-01-20T21:01:37.832Z,32.70
2019-01-20T21:04:08.102Z,33.00
2019-01-20T21:06:38.423Z,34.90
2019-01-20T21:09:10.514Z,34.30
2019-01-20T21:11:40.797Z,34.53
2019-01-20T21:14:11.103Z,33.73
2019-01-20T21:16:41.398Z,35.83
2019-01-20T21:19:11.673Z,35.43
2019-01-20T21:21:41.959Z,35.52
2019-01-20T21:24:12.225Z,35.23
2019-01-20T21:26:44.482Z,38.10
2019-01-20T21:29:14.721Z,39.67
2019-01-20T21:31:44.954Z,41.95
2019-01-20T21:34:15.434Z,38.73
2019-01-20T21:36:45.760Z,36.87
2019-01-20T21:39:15.975Z,34.27
2019-01-20T21:41:46.273Z,34.18
2019-01-20T21:44:16.469Z,33.10
2019-01-20T21:46:46.772Z,33.70
2019-01-20T21:49:16.969Z,30.87
2019-01-20T21:51:47.563Z,33.80
2019-01-20T21:54:17.891Z,34.60
2019-01-20T21:56:48.131Z,32.90
2019-01-20T21:59:18.501Z,34.27
2019-01-20T22:01:48.828Z,33.40
2019-01-20T22:04:19.185Z,32.17
2019-01-20T22:06:49.497Z,33.37
2019-01-20T22:09:19.728Z,31.80
2019-01-20T22:11:49.996Z,30.53
2019-01-20T22:14:20.296Z,32.97
2019-01-20T22:16:52.841Z,32.53
2019-01-20T22:19:22.556Z,33.03
2019-01-20T22:21:53.110Z,32.40
2019-01-20T22:24:23.386Z,32.67
2019-01-20T22:26:53.900Z,31.47
2019-01-20T22:29:24.094Z,31.50
2019-01-20T22:31:54.405Z,32.57
2019-01-20T22:34:24.704Z,29.23
2019-01-20T22:36:55.110Z,29.18
2019-01-20T22:39:25.367Z,27.47
2019-01-20T22:41:55.723Z,27.43
2019-01-20T22:44:26.016Z,28.45
2019-01-20T22:47:00.215Z,28.50
2019-01-20T22:49:28.486Z,26.43
2019-01-20T22:51:58.793Z,28.00
2019-01-20T22:54:29.065Z,28.17
2019-01-20T22:56:59.394Z,28.62
2019-01-20T22:59:29.647Z,29.10
2019-01-20T23:01:59.888Z,28.97
2019-01-20T23:04:30.186Z,29.93
2019-01-20T23:07:00.473Z,29.30
2019-01-20T23:09:30.696Z,30.83
2019-01-20T23:12:01.036Z,30.55
2019-01-20T23:14:31.328Z,30.33
2019-01-20T23:17:07.663Z,31.77
2019-01-20T23:19:33.921Z,31.13
2019-01-20T23:22:04.275Z,31.50
2019-01-20T23:24:34.527Z,29.47
2019-01-20T23:27:05.002Z,31.70
2019-01-20T23:29:35.345Z,30.30
2019-01-20T23:32:05.951Z,32.20
2019-01-20T23:34:36.276Z,31.87
2019-01-20T23:37:06.770Z,30.17
2019-01-20T23:39:36.943Z,29.73
2019-01-20T23:42:07.219Z,30.10
2019-01-20T23:44:37.560Z,35.43
2019-01-20T23:47:14.891Z,31.57
2019-01-20T23:49:39.842Z,31.57
2019-01-20T23:52:10.174Z,30.13
2019-01-20T23:54:40.477Z,30.80
2019-01-20T23:57:10.719Z,30.20
2019-01-20T23:59:42.240Z,30.62
